Time;durP1;ratioP1;P1;durP2;ratioP2;P2;SDS_P1;SDS_P2;PMS_P1;PMS_P2;Temp;Humidity;BMP_temperature;BMP_pressure;BME280_temperature;BME280_humidity;BME280_pressure;Samples;Min_cycle;Max_cycle;Signal;HPM_P1;HPM_P2
2022/09/10 00:01:33;;;;;;;0.10;0.10;;;;;;;12.75;100.00;96227.97;5076372;28;20091;-74
2022/09/10 00:04:00;;;;;;;0.00;0.00;;;;;;;12.83;100.00;96230.09;5058536;28;20488;-74
2022/09/10 00:06:29;;;;;;;0.00;0.00;;;;;;;12.74;100.00;96227.16;5074164;28;20115;-74
2022/09/10 00:08:58;;;;;;;0.08;0.08;;;;;;;12.69;100.00;96235.22;5076077;28;20044;-74
2022/09/10 00:11:29;;;;;;;0.10;0.10;;;;;;;12.65;100.00;96234.13;5076495;28;20051;-75
2022/09/10 00:13:56;;;;;;;0.10;0.10;;;;;;;12.63;100.00;96233.59;5073152;28;20491;-75
2022/09/10 00:16:22;;;;;;;0.00;0.00;;;;;;;12.61;100.00;96237.63;5075729;28;20047;-74
2022/09/10 00:18:47;;;;;;;0.10;0.10;;;;;;;12.61;100.00;96232.25;5075483;28;20051;-74
2022/09/10 00:21:16;;;;;;;0.10;0.10;;;;;;;12.50;100.00;96226.06;5063702;28;20048;-74
2022/09/10 00:23:45;;;;;;;0.00;0.00;;;;;;;12.44;100.00;96233.28;5074086;28;20640;-74
2022/09/10 00:26:16;;;;;;;0.10;0.10;;;;;;;12.44;100.00;96222.53;5077174;28;20051;-74
2022/09/10 00:28:42;;;;;;;0.10;0.10;;;;;;;12.43;100.00;96222.81;5072535;28;20406;-74
2022/09/10 00:31:08;;;;;;;0.00;0.00;;;;;;;12.42;100.00;96229.25;5079814;28;20487;-74
2022/09/10 00:33:34;;;;;;;0.00;0.00;;;;;;;12.50;100.00;96223.38;5076577;28;20039;-74
2022/09/10 00:35:59;;;;;;;0.10;0.00;;;;;;;12.51;100.00;96217.72;5042015;28;20071;-74
2022/09/10 00:38:30;;;;;;;0.00;0.00;;;;;;;12.45;100.00;96217.97;5040254;28;20515;-74
2022/09/10 00:41:07;;;;;;;;;;;;;;;12.35;100.00;96221.47;5077610;28;20259;-74
2022/09/10 00:43:53;;;;;;;0.00;0.00;;;;;;;12.38;100.00;96218.25;5048713;28;19920;-74
2022/09/10 00:46:37;;;;;;;0.10;0.10;;;;;;;12.28;100.00;96224.38;5076330;28;20126;-74
2022/09/10 00:49:13;;;;;;;0.00;0.00;;;;;;;12.23;100.00;96220.91;5047074;28;20036;-74
2022/09/10 00:51:39;;;;;;;0.00;0.00;;;;;;;12.04;100.00;96219.75;5076944;28;20138;-74
2022/09/10 00:54:05;;;;;;;0.00;0.00;;;;;;;11.94;100.00;96221.34;5079930;28;20569;-74
2022/09/10 00:56:32;;;;;;;0.10;0.10;;;;;;;11.96;100.00;96229.13;5077811;28;20043;-74
2022/09/10 00:58:59;;;;;;;0.10;0.10;;;;;;;11.98;100.00;96230.50;5075393;28;20047;-74
2022/09/10 01:01:24;;;;;;;0.00;0.00;;;;;;;11.88;100.00;96230.44;5074363;28;20040;-75
2022/09/10 01:03:53;;;;;;;0.05;0.03;;;;;;;11.85;100.00;96228.28;5040610;28;20031;-74
2022/09/10 01:06:19;;;;;;;0.08;0.08;;;;;;;11.91;100.00;96232.59;5059031;28;20040;-75
2022/09/10 01:08:44;;;;;;;0.10;0.10;;;;;;;12.03;100.00;96232.38;5073166;28;20090;-74
2022/09/10 01:11:16;;;;;;;0.00;0.00;;;;;;;12.14;100.00;96230.50;5064821;28;20048;-75
2022/09/10 01:17:37;;;;;;;0.08;0.08;;;;;;;12.54;100.00;96230.63;5078109;28;20351;-75
2022/09/10 01:20:25;;;;;;;0.10;0.10;;;;;;;12.53;100.00;96226.34;5063279;28;20043;-74
2022/09/10 01:23:19;;;;;;;0.00;0.00;;;;;;;12.46;100.00;96220.44;5067677;28;20293;-75
2022/09/10 01:25:57;;;;;;;0.10;0.10;;;;;;;12.47;100.00;96221.22;5052553;28;20040;-74
2022/09/10 01:28:34;;;;;;;0.00;0.00;;;;;;;12.53;100.00;96220.16;5058552;28;20616;-74
2022/09/10 01:31:12;;;;;;;0.10;0.10;;;;;;;12.43;100.00;96228.19;5073320;28;20052;-74
2022/09/10 01:34:31;;;;;;;0.00;0.00;;;;;;;12.33;100.00;96214.75;5059000;28;20035;-75
2022/09/10 01:37:04;;;;;;;0.00;0.00;;;;;;;12.34;100.00;96227.91;5055177;28;20063;-74
2022/09/10 01:39:30;;;;;;;0.00;0.00;;;;;;;12.51;100.00;96219.63;5057323;28;20536;-74
2022/09/10 01:41:57;;;;;;;0.00;0.00;;;;;;;12.48;100.00;96223.66;5056819;28;20036;-74
2022/09/10 01:44:43;;;;;;;0.00;0.00;;;;;;;12.49;100.00;96229.81;5064400;28;20044;-74
2022/09/10 01:47:31;;;;;;;0.05;0.05;;;;;;;12.54;100.00;96225.28;5043706;28;20036;-75
2022/09/10 01:50:32;;;;;;;0.00;0.00;;;;;;;12.58;100.00;96216.66;5056103;28;20228;-74
2022/09/10 01:53:14;;;;;;;0.00;0.00;;;;;;;12.56;100.00;96208.88;5053200;28;20059;-75
2022/09/10 01:56:21;;;;;;;0.08;0.08;;;;;;;12.55;100.00;96210.78;5076285;28;20572;-74
2022/09/10 01:58:48;;;;;;;0.00;0.00;;;;;;;12.54;100.00;96206.47;5058768;28;20519;-74
2022/09/10 02:01:23;;;;;;;0.10;0.10;;;;;;;12.73;100.00;96211.31;5052760;28;20900;-75
2022/09/10 02:03:58;;;;;;;0.10;0.10;;;;;;;12.69;100.00;96200.31;5071914;28;20127;-74
2022/09/10 02:06:28;;;;;;;0.10;0.10;;;;;;;12.57;100.00;96201.66;5074570;28;20052;-75
2022/09/10 02:08:57;;;;;;;;;;;;;;;12.61;100.00;96202.75;5054790;28;20047;-74
2022/09/10 02:11:24;;;;;;;0.00;0.00;;;;;;;12.66;100.00;96200.84;5059036;28;20170;-75
2022/09/10 02:13:52;;;;;;;0.00;0.00;;;;;;;12.62;100.00;96190.91;5051752;28;20036;-74
2022/09/10 02:16:46;;;;;;;0.00;0.00;;;;;;;12.53;100.00;96194.13;5052620;28;20392;-74
2022/09/10 02:19:13;;;;;;;;;;;;;;;12.54;100.00;96187.69;5058183;28;20633;-74
2022/09/10 02:21:39;;;;;;;0.08;0.00;;;;;;;12.49;100.00;96197.59;5064860;27;20195;-75
2022/09/10 02:24:08;;;;;;;0.05;0.05;;;;;;;12.58;100.00;96190.63;5072561;28;20040;-74
2022/09/10 02:26:38;;;;;;;0.10;0.10;;;;;;;12.61;100.00;96195.50;5057865;28;20356;-74
2022/09/10 02:29:06;;;;;;;0.10;0.10;;;;;;;12.54;100.00;96192.25;5072937;28;20159;-74
2022/09/10 02:31:32;;;;;;;0.00;0.00;;;;;;;12.53;100.00;96202.19;5076316;28;20036;-74
2022/09/10 02:33:58;;;;;;;0.00;0.00;;;;;;;12.56;100.00;96203.53;5055027;28;20463;-74
2022/09/10 02:36:26;;;;;;;0.32;0.10;;;;;;;12.49;100.00;96203.78;5051884;28;20459;-75
2022/09/10 02:38:55;;;;;;;0.10;0.10;;;;;;;12.58;100.00;96195.19;5050384;28;20032;-74
2022/09/10 02:41:24;;;;;;;0.03;0.03;;;;;;;12.67;100.00;96201.66;5056741;28;20036;-74
2022/09/10 02:43:51;;;;;;;0.10;0.10;;;;;;;12.67;100.00;96194.41;5067505;28;20062;-75
2022/09/10 02:46:17;;;;;;;0.10;0.10;;;;;;;12.73;100.00;96190.66;5057576;28;20058;-74
2022/09/10 02:48:43;;;;;;;0.00;0.00;;;;;;;12.71;100.00;96183.94;5067997;28;20491;-74
2022/09/10 02:51:09;;;;;;;0.00;0.00;;;;;;;12.64;100.00;96186.09;5036980;28;20105;-73
2022/09/10 02:53:37;;;;;;;0.10;0.10;;;;;;;12.62;100.00;96201.66;5047967;28;20516;-75
2022/09/10 02:56:04;;;;;;;0.10;0.10;;;;;;;12.55;100.00;96189.31;5055055;28;20036;-75
2022/09/10 02:58:30;;;;;;;0.08;0.08;;;;;;;12.46;100.00;96192.78;5069820;28;20478;-74
2022/09/10 03:01:13;;;;;;;0.00;0.00;;;;;;;12.38;100.00;96191.44;5053674;28;21107;-74
2022/09/10 03:03:40;;;;;;;0.08;0.08;;;;;;;12.44;100.00;96201.06;5050664;28;20048;-74
2022/09/10 03:06:06;;;;;;;0.10;0.10;;;;;;;12.50;100.00;96193.84;5072261;28;20123;-75
2022/09/10 03:08:33;;;;;;;0.10;0.10;;;;;;;12.67;100.00;96188.22;5069201;28;20040;-74
2022/09/10 03:10:59;;;;;;;0.10;0.10;;;;;;;12.80;100.00;96177.75;5042386;28;20040;-73
2022/09/10 03:13:28;;;;;;;0.00;0.00;;;;;;;12.97;100.00;96184.72;5073236;28;20051;-74
2022/09/10 03:16:01;;;;;;;0.00;0.00;;;;;;;12.90;100.00;96184.19;5070175;28;20043;-75
2022/09/10 03:18:26;;;;;;;0.10;0.10;;;;;;;12.80;100.00;96185.00;5054791;28;20289;-75
2022/09/10 03:20:52;;;;;;;0.05;0.05;;;;;;;12.68;100.00;96189.81;5057200;28;20441;-74
2022/09/10 03:23:18;;;;;;;0.10;0.10;;;;;;;12.63;100.00;96198.69;5050370;28;20364;-74
2022/09/10 03:25:45;;;;;;;0.00;0.00;;;;;;;12.50;100.00;96183.91;5054585;28;20036;-74
2022/09/10 03:28:12;;;;;;;0.10;0.10;;;;;;;12.53;100.00;96194.13;5054018;28;20039;-74
2022/09/10 03:30:39;;;;;;;0.10;0.10;;;;;;;12.41;100.00;96187.41;5053731;28;20553;-74
2022/09/10 03:33:06;;;;;;;0.10;0.10;;;;;;;12.32;100.00;96189.00;5050839;28;20059;-74
2022/09/10 03:35:33;;;;;;;0.55;0.20;;;;;;;12.24;100.00;96184.97;5045525;28;20055;-74
2022/09/10 03:38:01;;;;;;;0.10;0.10;;;;;;;12.30;100.00;96194.63;5031137;28;20044;-74
2022/09/10 03:40:28;;;;;;;0.10;0.10;;;;;;;12.28;100.00;96188.72;5034445;28;20774;-74
2022/09/10 03:42:54;;;;;;;0.00;0.00;;;;;;;12.21;100.00;96188.16;5038809;28;20044;-74
2022/09/10 03:45:19;;;;;;;0.10;0.10;;;;;;;12.26;100.00;96193.53;5036249;28;20322;-73
2022/09/10 03:47:45;;;;;;;0.08;0.08;;;;;;;12.25;100.00;96191.94;5033510;28;20100;-74
2022/09/10 03:50:11;;;;;;;0.10;0.10;;;;;;;12.20;100.00;96190.03;5051420;28;20040;-74
2022/09/10 03:52:37;;;;;;;0.10;0.10;;;;;;;12.22;100.00;96187.91;5036775;28;20105;-74
2022/09/10 03:55:03;;;;;;;0.10;0.10;;;;;;;12.26;100.00;96188.19;5038459;28;20265;-74
2022/09/10 03:57:30;;;;;;;0.10;0.10;;;;;;;12.26;100.00;96194.34;5022805;28;20244;-75
2022/09/10 03:59:55;;;;;;;0.10;0.10;;;;;;;12.29;100.00;96195.69;5034523;28;20051;-74
2022/09/10 04:02:24;;;;;;;0.00;0.00;;;;;;;12.26;100.00;96196.22;5032866;28;20049;-75
2022/09/10 04:04:50;;;;;;;0.10;0.10;;;;;;;12.38;100.00;96202.16;5043918;28;20048;-74
2022/09/10 04:07:16;;;;;;;0.10;0.10;;;;;;;12.34;100.00;96194.91;5036194;28;20033;-74
2022/09/10 04:09:41;;;;;;;0.10;0.10;;;;;;;12.41;100.00;96201.63;5038070;28;20123;-75
2022/09/10 04:12:07;;;;;;;0.10;0.10;;;;;;;12.31;100.00;96193.56;5036117;28;20079;-74
2022/09/10 04:14:33;;;;;;;0.00;0.00;;;;;;;12.39;100.00;96200.28;5037436;28;20083;-73
2022/09/10 04:17:01;;;;;;;0.00;0.00;;;;;;;12.35;100.00;96197.31;5040090;28;20506;-74
2022/09/10 04:19:27;;;;;;;0.00;0.00;;;;;;;12.41;100.00;96198.94;5038923;28;20028;-74
2022/09/10 04:21:53;;;;;;;0.10;0.10;;;;;;;12.41;100.00;96198.13;5039602;28;20036;-74
2022/09/10 04:24:19;;;;;;;0.00;0.00;;;;;;;12.47;100.00;96189.03;5027071;28;20107;-73
2022/09/10 04:26:45;;;;;;;0.10;0.10;;;;;;;12.51;100.00;96196.25;5039578;28;20041;-75
2022/09/10 04:29:13;;;;;;;0.08;0.08;;;;;;;12.49;100.00;96195.72;5036825;28;20028;-74
2022/09/10 04:31:40;;;;;;;0.10;0.10;;;;;;;12.40;100.00;96197.34;5053888;28;20625;-74
2022/09/10 04:34:14;;;;;;;0.00;0.00;;;;;;;12.41;100.00;96198.94;5035527;28;20037;-74
2022/09/10 04:36:40;;;;;;;0.10;0.10;;;;;;;12.43;100.00;96204.03;5054807;28;20655;-74
2022/09/10 04:39:07;;;;;;;0.10;0.10;;;;;;;12.42;100.00;96199.75;5044616;28;20101;-75
2022/09/10 04:41:34;;;;;;;0.00;0.00;;;;;;;12.41;100.00;96196.25;5057910;28;20254;-74
2022/09/10 04:44:00;;;;;;;0.10;0.10;;;;;;;12.49;100.00;96208.34;5057635;28;20127;-74
2022/09/10 04:46:26;;;;;;;0.08;0.08;;;;;;;12.45;100.00;96207.25;5072406;28;20066;-74
2022/09/10 04:48:54;;;;;;;0.10;0.10;;;;;;;12.40;100.00;96189.28;5058262;28;20410;-75
2022/09/10 04:51:22;;;;;;;0.10;0.10;;;;;;;12.45;100.00;96204.56;5058873;28;20378;-75
2022/09/10 04:53:51;;;;;;;0.05;0.05;;;;;;;12.34;100.00;96206.44;5057909;28;20036;-74
2022/09/10 04:56:20;;;;;;;0.00;0.00;;;;;;;12.42;100.00;96205.91;5057441;28;20491;-74
2022/09/10 04:58:46;;;;;;;0.00;0.00;;;;;;;12.37;100.00;96202.41;5076613;28;20043;-74
2022/09/10 05:01:12;;;;;;;0.05;0.05;;;;;;;12.40;100.00;96205.38;5039457;28;20028;-74
2022/09/10 05:03:38;;;;;;;0.00;0.00;;;;;;;12.35;100.00;96204.56;5063584;28;20062;-74
2022/09/10 05:06:05;;;;;;;0.05;0.05;;;;;;;12.42;100.00;96208.59;5059438;28;20079;-74
2022/09/10 05:08:32;;;;;;;0.10;0.10;;;;;;;12.32;100.00;96207.78;5043465;28;20341;-74
2022/09/10 05:11:01;;;;;;;0.10;0.10;;;;;;;12.33;100.00;96212.06;5061367;28;20215;-74
2022/09/10 05:13:29;;;;;;;0.10;0.10;;;;;;;12.34;100.00;96206.44;5055097;28;20040;-74
2022/09/10 05:15:57;;;;;;;0.08;0.08;;;;;;;12.27;100.00;96211.25;5059525;28;20086;-74
2022/09/10 05:18:25;;;;;;;0.00;0.00;;;;;;;12.31;100.00;96209.66;5044213;28;20992;-74
2022/09/10 05:20:51;;;;;;;0.08;0.08;;;;;;;12.37;100.00;96208.56;5055791;28;20036;-74
2022/09/10 05:23:17;;;;;;;0.00;0.00;;;;;;;12.37;100.00;96202.41;5055501;28;20043;-75
2022/09/10 05:25:44;;;;;;;0.00;0.00;;;;;;;12.32;100.00;96205.09;5037713;28;20432;-74
2022/09/10 05:28:10;;;;;;;0.10;0.10;;;;;;;12.34;100.00;96205.63;5044715;28;20316;-75
2022/09/10 05:30:36;;;;;;;0.00;0.00;;;;;;;12.39;100.00;96197.59;5057744;28;20577;-74
2022/09/10 05:33:02;;;;;;;0.10;0.10;;;;;;;12.44;100.00;96209.13;5072998;28;20047;-74
2022/09/10 05:35:32;;;;;;;0.10;0.10;;;;;;;12.51;100.00;96209.69;5072028;28;20047;-74
2022/09/10 05:37:59;;;;;;;0.00;0.00;;;;;;;12.53;100.00;96210.25;5055719;28;20040;-74
2022/09/10 05:40:28;;;;;;;0.00;0.00;;;;;;;12.48;100.00;96207.53;5059599;28;20040;-74
2022/09/10 05:42:54;;;;;;;0.10;0.10;;;;;;;12.44;100.00;96211.00;5059263;28;20434;-74
2022/09/10 05:45:22;;;;;;;0.10;0.10;;;;;;;12.47;100.00;96210.50;5044399;28;20587;-74
2022/09/10 05:47:49;;;;;;;0.10;0.10;;;;;;;12.35;100.00;96210.72;5073400;28;20040;-74
2022/09/10 05:50:19;;;;;;;;;;;;;;;12.54;100.00;96219.09;5036055;28;20471;-74
2022/09/10 05:52:45;;;;;;;0.10;0.10;;;;;;;12.54;100.00;96217.22;5043673;28;20198;-74
2022/09/10 05:55:14;;;;;;;0.00;0.00;;;;;;;12.54;100.00;96216.41;5042890;28;20082;-74
2022/09/10 05:57:40;;;;;;;0.00;0.00;;;;;;;12.53;100.00;96210.25;5063236;28;20450;-74
2022/09/10 06:00:09;;;;;;;0.10;0.10;;;;;;;12.60;100.00;96217.22;5054523;28;20070;-75
2022/09/10 06:03:01;;;;;;;0.10;0.10;;;;;;;12.61;100.00;96216.16;5069496;28;20388;-74
2022/09/10 06:05:38;;;;;;;0.10;0.10;;;;;;;12.77;100.00;96217.78;5059890;28;20036;-74
2022/09/10 06:08:04;;;;;;;0.00;0.00;;;;;;;12.54;100.00;96227.94;5057529;28;20372;-74
2022/09/10 06:10:31;;;;;;;0.10;0.10;;;;;;;12.54;100.00;96227.94;5053287;28;20027;-74
2022/09/10 06:12:59;;;;;;;0.00;0.00;;;;;;;12.66;100.00;96226.88;5061198;28;20402;-74
2022/09/10 06:15:25;;;;;;;0.10;0.10;;;;;;;12.76;100.00;96226.88;5071573;28;20035;-74
2022/09/10 06:17:54;;;;;;;0.10;0.10;;;;;;;12.79;100.00;96215.63;5057775;28;20044;-74
2022/09/10 06:20:22;;;;;;;0.10;0.10;;;;;;;12.90;100.00;96221.78;5054845;28;20047;-74
2022/09/10 06:22:48;;;;;;;0.00;0.00;;;;;;;13.02;100.00;96222.34;5086945;27;20115;-74
2022/09/10 06:25:13;;;;;;;0.00;0.00;;;;;;;13.01;100.00;96212.69;5056029;28;20554;-75
2022/09/10 06:27:40;;;;;;;0.00;0.00;;;;;;;13.07;100.00;96223.16;5054286;28;20027;-74
2022/09/10 06:30:07;;;;;;;0.10;0.10;;;;;;;13.14;100.00;96220.16;5058646;28;20442;-74
2022/09/10 06:32:33;;;;;;;0.10;0.10;;;;;;;13.03;100.00;96223.94;5040167;28;20227;-74
2022/09/10 06:35:05;;;;;;;0.00;0.00;;;;;;;13.09;100.00;96242.47;5057159;28;20105;-74
2022/09/10 06:37:33;;;;;;;0.00;0.00;;;;;;;13.14;100.00;96230.09;5039303;28;20043;-74
2022/09/10 06:40:00;;;;;;;0.00;0.00;;;;;;;13.21;100.00;96236.84;5057529;28;20040;-74
2022/09/10 06:42:26;;;;;;;0.10;0.10;;;;;;;13.31;100.00;96236.06;5071242;28;20066;-75
2022/09/10 06:45:05;;;;;;;0.10;0.10;;;;;;;13.38;100.00;96234.69;5060138;28;20036;-74
2022/09/10 06:47:53;;;;;;;0.00;0.00;;;;;;;13.57;100.00;96231.44;5046454;28;20047;-74
2022/09/10 06:50:20;;;;;;;0.00;0.00;;;;;;;13.49;100.00;96237.38;5057466;28;20040;-74
2022/09/10 06:52:47;;;;;;;0.20;0.10;;;;;;;13.52;100.00;96237.59;5050387;28;20044;-74
2022/09/10 06:55:14;;;;;;;0.10;0.10;;;;;;;13.42;100.00;96240.31;5054528;28;20177;-74
2022/09/10 06:57:45;;;;;;;0.00;0.00;;;;;;;13.33;100.00;96244.66;5070847;28;20152;-75
2022/09/10 07:00:13;;;;;;;0.00;0.00;;;;;;;13.32;100.00;96243.84;5072072;28;20087;-74
2022/09/10 07:02:40;;;;;;;0.10;0.10;;;;;;;13.45;100.00;96241.66;5061787;28;20368;-74
2022/09/10 07:05:07;;;;;;;0.03;0.03;;;;;;;13.28;100.00;96248.13;5043812;28;20044;-74
2022/09/10 07:07:35;;;;;;;0.10;0.10;;;;;;;13.10;100.00;96240.59;5038935;28;20132;-74
2022/09/10 07:10:02;;;;;;;0.10;0.10;;;;;;;12.97;100.00;96251.88;5056224;28;20039;-74
2022/09/10 07:12:29;;;;;;;0.08;0.08;;;;;;;12.99;100.00;96253.22;5068761;28;20097;-74
2022/09/10 07:14:54;;;;;;;0.00;0.00;;;;;;;13.03;100.00;96248.94;5076078;28;20052;-74
2022/09/10 07:17:20;;;;;;;0.00;0.00;;;;;;;12.86;100.00;96251.06;5036914;28;20350;-74
2022/09/10 07:19:46;;;;;;;0.10;0.10;;;;;;;12.85;100.00;96252.16;5055764;28;20127;-74
2022/09/10 07:22:22;;;;;;;0.10;0.10;;;;;;;13.00;100.00;96262.91;5055766;28;20445;-74
2022/09/10 07:24:50;;;;;;;0.00;0.00;;;;;;;13.08;100.00;96257.00;5060256;28;20348;-74
2022/09/10 07:27:36;;;;;;;0.10;0.10;;;;;;;13.36;100.00;96258.34;5069903;28;20630;-74
2022/09/10 07:30:02;;;;;;;0.10;0.10;;;;;;;13.41;100.00;96257.53;5075180;28;20047;-74
2022/09/10 07:32:32;;;;;;;0.00;0.00;;;;;;;13.58;100.00;96263.41;5048573;28;20338;-74
2022/09/10 07:35:07;;;;;;;0.00;0.00;;;;;;;13.36;100.00;96254.84;5056718;28;20048;-74
2022/09/10 07:37:33;;;;;;;0.10;0.10;;;;;;;13.40;100.00;96260.50;5040510;28;20068;-74
2022/09/10 07:40:03;;;;;;;0.10;0.10;;;;;;;13.33;100.00;96255.41;5056264;28;20041;-74
2022/09/10 07:42:29;;;;;;;0.10;0.10;;;;;;;13.71;100.00;96253.19;5040357;28;20036;-74
2022/09/10 07:44:55;;;;;;;0.10;0.10;;;;;;;13.92;100.00;96260.09;5056632;28;20441;-74
2022/09/10 07:47:24;;;;;;;0.10;0.10;;;;;;;13.79;100.00;96252.63;5053659;28;20044;-74
2022/09/10 07:49:51;;;;;;;0.10;0.10;;;;;;;13.86;100.00;96253.94;5072627;28;20044;-74
2022/09/10 07:52:17;;;;;;;0.10;0.10;;;;;;;14.12;100.00;96257.34;5052601;28;20190;-75
2022/09/10 07:54:48;;;;;;;0.10;0.10;;;;;;;14.29;100.00;96256.97;5055581;28;20386;-74
2022/09/10 07:57:14;;;;;;;0.15;0.15;;;;;;;14.57;100.00;96252.03;5020050;28;20068;-75
2022/09/10 07:59:40;;;;;;;0.10;0.10;;;;;;;14.66;100.00;96242.28;5037159;28;20035;-74
2022/09/10 08:02:16;;;;;;;0.00;0.00;;;;;;;14.41;100.00;96240.53;5050630;28;20055;-74
2022/09/10 08:04:49;;;;;;;0.00;0.00;;;;;;;14.09;100.00;96252.50;5059047;28;20422;-74
2022/09/10 08:07:18;;;;;;;0.00;0.00;;;;;;;14.16;100.00;96265.66;5048671;28;20093;-75
2022/09/10 08:09:44;;;;;;;0.10;0.10;;;;;;;14.26;100.00;96256.75;5056525;28;20059;-74
2022/09/10 08:12:15;;;;;;;0.10;0.10;;;;;;;14.22;100.00;96262.66;5058585;28;20298;-74
2022/09/10 08:14:41;;;;;;;0.08;0.08;;;;;;;14.23;100.00;96260.78;5072199;28;20064;-74
2022/09/10 08:17:07;;;;;;;0.00;0.00;;;;;;;14.12;100.00;96268.09;5072289;28;20039;-74
2022/09/10 08:19:40;;;;;;;0.10;0.10;;;;;;;14.14;100.00;96260.53;5059740;28;20046;-74
2022/09/10 08:22:06;;;;;;;0.00;0.00;;;;;;;13.98;100.00;96272.44;5070453;28;20094;-74
2022/09/10 08:24:38;;;;;;;0.10;0.10;;;;;;;14.22;100.00;96278.81;5057272;28;20545;-74
2022/09/10 08:27:04;;;;;;;0.00;0.00;;;;;;;14.01;100.00;96279.16;5053795;28;20284;-74
2022/09/10 08:29:30;;;;;;;0.10;0.10;;;;;;;14.00;100.00;96275.66;5074683;28;20493;-75
2022/09/10 08:31:57;;;;;;;0.10;0.10;;;;;;;14.19;100.00;96279.38;5049947;28;20464;-74
2022/09/10 08:34:28;;;;;;;0.10;0.10;;;;;;;14.38;100.00;96276.03;5038275;28;20735;-75
2022/09/10 08:37:02;;;;;;;0.00;0.00;;;;;;;14.28;100.00;96276.09;5014296;28;20534;-74
2022/09/10 08:39:32;;;;;;;0.05;0.05;;;;;;;14.06;100.00;96279.16;5036176;28;20033;-74
2022/09/10 08:42:04;;;;;;;0.00;0.00;;;;;;;13.96;100.00;96285.38;5021334;28;20044;-75
2022/09/10 08:44:39;;;;;;;0.10;0.10;;;;;;;14.05;100.00;96291.78;5031424;28;20040;-74
2022/09/10 08:47:08;;;;;;;0.10;0.10;;;;;;;14.17;100.00;96289.63;5031515;28;20116;-74
2022/09/10 08:50:02;;;;;;;0.00;0.00;;;;;;;14.31;100.00;96289.00;5031209;28;20250;-74
2022/09/10 08:52:50;;;;;;;0.10;0.10;;;;;;;14.06;100.00;96288.03;5034541;28;20028;-75
2022/09/10 08:55:24;;;;;;;0.00;0.00;;;;;;;14.08;100.00;96296.63;5026219;28;20422;-75
2022/09/10 08:58:17;;;;;;;0.08;0.08;;;;;;;13.77;100.00;96301.28;5019594;28;20072;-74
2022/09/10 09:00:45;;;;;;;0.10;0.10;;;;;;;13.79;100.00;96306.41;5035412;28;20032;-74
2022/09/10 09:03:31;;;;;;;0.10;0.10;;;;;;;13.72;100.00;96308.56;5035628;28;20134;-74
2022/09/10 09:06:00;;;;;;;0.10;0.10;;;;;;;13.61;100.00;96307.75;5039931;28;20072;-74
2022/09/10 09:08:47;;;;;;;0.10;0.10;;;;;;;13.83;100.00;96316.31;5052772;28;20563;-74
2022/09/10 09:11:33;;;;;;;0.10;0.10;;;;;;;13.73;100.00;96308.28;5042052;28;20399;-73
2022/09/10 09:14:32;;;;;;;0.10;0.10;;;;;;;13.94;100.00;96303.69;5041532;28;20047;-74
2022/09/10 09:17:37;;;;;;;0.00;0.00;;;;;;;14.13;100.00;96307.38;5016499;28;20615;-75
2022/09/10 09:20:09;;;;;;;0.10;0.10;;;;;;;14.66;100.00;96288.88;5056608;28;20041;-74
2022/09/10 09:22:42;;;;;;;0.10;0.10;;;;;;;14.90;100.00;96288.19;5035475;28;20214;-73
2022/09/10 09:25:23;;;;;;;0.10;0.10;;;;;;;15.16;100.00;96292.28;5039978;28;20441;-74
2022/09/10 09:27:55;;;;;;;0.10;0.10;;;;;;;15.57;100.00;96278.47;5013320;28;20035;-73
2022/09/10 09:30:40;;;;;;;0.00;0.00;;;;;;;15.70;100.00;96283.22;5054948;28;20532;-74
2022/09/10 09:33:13;;;;;;;0.10;0.10;;;;;;;15.51;100.00;96285.81;5033845;28;20079;-74
2022/09/10 09:35:52;;;;;;;0.10;0.10;;;;;;;15.44;100.00;96287.22;5039470;28;20075;-74
2022/09/10 09:38:40;;;;;;;0.10;0.10;;;;;;;15.84;100.00;96286.84;5073848;28;20074;-74
2022/09/10 09:41:42;;;;;;;0.10;0.10;;;;;;;15.95;100.00;96292.13;5057595;28;20092;-74
2022/09/10 09:44:24;;;;;;;0.10;0.10;;;;;;;16.44;100.00;96276.44;5044266;28;20052;-73
2022/09/10 09:46:50;;;;;;;0.10;0.10;;;;;;;17.15;100.00;96273.84;5060756;28;20077;-74
2022/09/10 09:49:18;;;;;;;0.10;0.10;;;;;;;17.12;100.00;96272.53;5058565;28;20030;-74
2022/09/10 09:51:47;;;;;;;0.00;0.00;;;;;;;16.60;100.00;96271.66;5060753;28;20424;-75
2022/09/10 09:54:18;;;;;;;0.20;0.10;;;;;;;17.06;100.00;96272.91;5079474;28;20074;-74
2022/09/10 09:56:50;;;;;;;0.08;0.08;;;;;;;17.21;100.00;96269.97;5078168;28;20526;-75
2022/09/10 09:59:35;;;;;;;0.10;0.10;;;;;;;17.42;100.00;96276.63;5074817;28;20033;-75
2022/09/10 10:02:11;;;;;;;0.10;0.10;;;;;;;17.15;100.00;96271.94;5074129;28;20067;-74
2022/09/10 10:05:16;;;;;;;0.10;0.10;;;;;;;17.12;100.00;96267.13;5076961;28;20408;-74
2022/09/10 10:07:47;;;;;;;0.10;0.10;;;;;;;18.14;100.00;96278.09;5059595;28;20039;-74
2022/09/10 10:10:23;;;;;;;0.08;0.08;;;;;;;18.35;100.00;96265.72;5077131;28;20551;-74
2022/09/10 10:12:51;;;;;;;0.00;0.00;;;;;;;17.45;100.00;96276.06;5077298;28;20028;-74
2022/09/10 10:15:52;;;;;;;0.10;0.10;;;;;;;17.67;100.00;96258.38;5076385;28;20032;-75
2022/09/10 10:18:21;;;;;;;0.13;0.13;;;;;;;18.05;100.00;96256.31;4975669;28;20042;-74
2022/09/10 10:20:48;;;;;;;0.10;0.10;;;;;;;18.04;100.00;96254.72;5057202;28;20412;-75
2022/09/10 10:23:37;;;;;;;0.10;0.10;;;;;;;17.26;100.00;96261.75;5075907;28;20040;-75
2022/09/10 10:26:29;;;;;;;0.10;0.10;;;;;;;16.90;100.00;96262.34;5075769;28;20287;-74
2022/09/10 10:29:15;;;;;;;0.00;0.00;;;;;;;16.81;100.00;96256.00;5066945;28;20059;-74
2022/09/10 10:31:47;;;;;;;0.00;0.00;;;;;;;17.14;100.00;96262.22;5075213;28;20564;-75
2022/09/10 10:34:15;;;;;;;0.05;0.05;;;;;;;17.71;100.00;96254.78;5080511;28;20059;-75
2022/09/10 10:36:58;;;;;;;0.10;0.10;;;;;;;17.48;100.00;96253.81;5061213;28;20094;-74
2022/09/10 10:39:39;;;;;;;0.00;0.00;;;;;;;17.40;100.00;96251.00;5054059;28;20439;-75
2022/09/10 10:42:50;;;;;;;0.10;0.10;;;;;;;17.01;100.00;96254.06;4705621;28;9999920;-74
2022/09/10 10:45:37;;;;;;;0.10;0.10;;;;;;;16.85;100.00;96246.19;5051268;28;20063;-74
2022/09/10 10:48:08;;;;;;;0.00;0.00;;;;;;;16.82;100.00;96249.50;5058886;28;20155;-74
2022/09/10 10:51:22;;;;;;;0.00;0.00;;;;;;;16.34;100.00;96263.09;5056559;28;20047;-74
2022/09/10 10:53:56;;;;;;;0.00;0.00;;;;;;;16.46;100.00;96267.25;4989736;28;20070;-74
2022/09/10 10:56:28;;;;;;;0.10;0.10;;;;;;;16.49;100.00;96272.06;5051465;28;20403;-74
2022/09/10 10:59:22;;;;;;;0.00;0.00;;;;;;;16.43;100.00;96266.75;5058152;28;20115;-74
2022/09/10 11:01:56;;;;;;;0.08;0.08;;;;;;;16.14;100.00;96264.13;5053619;28;20502;-75
2022/09/10 11:04:22;;;;;;;0.10;0.10;;;;;;;15.65;100.00;96272.50;5056829;28;20068;-74
2022/09/10 11:06:56;;;;;;;0.10;0.10;;;;;;;15.68;100.00;96274.63;5038666;28;20453;-74
2022/09/10 11:09:31;;;;;;;0.10;0.10;;;;;;;15.67;100.00;96273.00;5036639;28;20583;-75
2022/09/10 11:12:05;;;;;;;0.00;0.00;;;;;;;15.67;100.00;96264.91;5033258;28;20571;-74
2022/09/10 11:14:52;;;;;;;0.10;0.10;;;;;;;15.97;100.00;96257.59;5054818;28;20123;-74
2022/09/10 11:17:26;;;;;;;0.10;0.10;;;;;;;16.10;100.00;96248.78;5053630;28;20048;-75
2022/09/10 11:20:04;;;;;;;0.10;0.10;;;;;;;15.88;100.00;96260.94;5053219;28;20093;-74
2022/09/10 11:22:35;;;;;;;0.10;0.10;;;;;;;15.92;100.00;96266.53;5053330;28;20125;-74
2022/09/10 11:25:16;;;;;;;0.08;0.08;;;;;;;16.35;100.00;96269.28;5056713;28;20051;-74
2022/09/10 11:27:48;;;;;;;0.00;0.00;;;;;;;16.72;100.00;96252.31;5041457;28;20052;-73
2022/09/10 11:30:16;;;;;;;0.10;0.10;;;;;;;17.20;100.00;96254.84;5056272;28;20147;-74
2022/09/10 11:32:59;;;;;;;0.00;0.00;;;;;;;17.65;100.00;96258.66;5055933;28;20273;-73
2022/09/10 11:35:27;;;;;;;0.00;0.00;;;;;;;17.71;100.00;96248.56;5064737;28;20603;-73
2022/09/10 11:38:00;;;;;;;0.10;0.10;;;;;;;17.85;100.00;96249.41;5076794;28;20046;-75
2022/09/10 11:40:59;;;;;;;0.10;0.10;;;;;;;18.06;100.00;96245.22;5075306;28;20421;-74
2022/09/10 11:43:49;;;;;;;0.00;0.00;;;;;;;17.93;100.00;96242.50;5075127;28;20495;-74
2022/09/10 11:46:22;;;;;;;0.10;0.10;;;;;;;18.05;100.00;96243.59;5074225;28;20042;-74
2022/09/10 11:49:04;;;;;;;0.10;0.10;;;;;;;17.80;100.00;96241.38;5077239;28;20032;-74
2022/09/10 11:51:33;;;;;;;0.10;0.10;;;;;;;17.87;100.00;96240.97;5057489;28;20042;-74
2022/09/10 11:54:01;;;;;;;0.00;0.00;;;;;;;17.57;100.00;96240.41;5060684;28;20489;-74